Holt, Alabama
Current Conditions -  °F | °C
As of 2:53 AM on Monday 22 Dec 2014 (Local Time) from KTCL Reporting Station
Overcast Overcast  
Wind Chill: 52°   Ceiling: 900
Heat Index: 52°   Visibility: 8mi
Dew Point: 49°   Wind: 7mph
Humidity: 89%   Direction: 100°E
Pressure: 29.96"   Gusts: NA
Location:  33.2198°N, 87.4638°W
Report Text: KTCL 220853Z AUTO 10006KT 8SM OVC009 11/09 A2996 RMK AO2 SLP143 T01110094 56018
Loading
Personal Weather Stations






























Interactive Weather Map New forecast layout! Learn more

10-Day Weather Forecast

Advertisements
Track Severe Weather on mobile